sensor_id;sensor_type;location;lat;lon;timestamp;P1;durP1;ratioP1;P2;durP2;ratioP2
57023;SDS011;42916;54.346;18.562;2023-11-21T00:02:02;12.10;;;6.00;;
57023;SDS011;42916;54.346;18.562;2023-11-21T00:04:30;9.80;;;6.10;;
57023;SDS011;42916;54.346;18.562;2023-11-21T00:06:57;11.20;;;5.70;;
57023;SDS011;42916;54.346;18.562;2023-11-21T00:09:24;10.70;;;6.00;;
57023;SDS011;42916;54.346;18.562;2023-11-21T00:11:50;11.00;;;5.80;;
57023;SDS011;42916;54.346;18.562;2023-11-21T00:14:17;10.90;;;5.20;;
57023;SDS011;42916;54.346;18.562;2023-11-21T00:16:44;9.70;;;5.50;;
57023;SDS011;42916;54.346;18.562;2023-11-21T00:19:11;9.80;;;5.10;;
57023;SDS011;42916;54.346;18.562;2023-11-21T00:21:38;12.80;;;6.10;;
57023;SDS011;42916;54.346;18.562;2023-11-21T00:24:05;12.40;;;6.00;;
57023;SDS011;42916;54.346;18.562;2023-11-21T00:26:32;11.10;;;5.20;;
57023;SDS011;42916;54.346;18.562;2023-11-21T00:29:03;10.40;;;5.70;;
57023;SDS011;42916;54.346;18.562;2023-11-21T00:31:30;14.10;;;5.60;;
57023;SDS011;42916;54.346;18.562;2023-11-21T00:33:57;11.70;;;6.00;;
57023;SDS011;42916;54.346;18.562;2023-11-21T00:36:24;12.30;;;5.80;;
57023;SDS011;42916;54.346;18.562;2023-11-21T00:38:52;9.10;;;5.10;;
57023;SDS011;42916;54.346;18.562;2023-11-21T00:41:19;12.50;;;5.80;;
57023;SDS011;42916;54.346;18.562;2023-11-21T00:43:45;10.70;;;5.90;;
57023;SDS011;42916;54.346;18.562;2023-11-21T00:46:12;10.90;;;5.40;;
57023;SDS011;42916;54.346;18.562;2023-11-21T00:48:40;10.40;;;5.80;;
57023;SDS011;42916;54.346;18.562;2023-11-21T00:51:06;11.10;;;5.30;;
57023;SDS011;42916;54.346;18.562;2023-11-21T00:53:33;11.30;;;5.40;;
57023;SDS011;42916;54.346;18.562;2023-11-21T00:56:00;9.90;;;5.60;;
57023;SDS011;42916;54.346;18.562;2023-11-21T00:58:26;9.60;;;5.20;;
57023;SDS011;42916;54.346;18.562;2023-11-21T01:00:53;10.50;;;5.40;;
57023;SDS011;42916;54.346;18.562;2023-11-21T01:03:20;10.50;;;5.10;;
57023;SDS011;42916;54.346;18.562;2023-11-21T01:05:48;9.50;;;5.00;;
57023;SDS011;42916;54.346;18.562;2023-11-21T01:08:16;9.70;;;4.90;;
57023;SDS011;42916;54.346;18.562;2023-11-21T01:10:43;8.40;;;5.20;;
57023;SDS011;42916;54.346;18.562;2023-11-21T01:13:10;9.20;;;5.10;;
57023;SDS011;42916;54.346;18.562;2023-11-21T01:15:37;9.10;;;4.80;;
57023;SDS011;42916;54.346;18.562;2023-11-21T01:18:04;12.00;;;5.80;;
57023;SDS011;42916;54.346;18.562;2023-11-21T01:20:31;9.10;;;5.10;;
57023;SDS011;42916;54.346;18.562;2023-11-21T01:22:57;10.20;;;5.10;;
57023;SDS011;42916;54.346;18.562;2023-11-21T01:25:24;11.40;;;5.40;;
57023;SDS011;42916;54.346;18.562;2023-11-21T01:27:51;9.70;;;5.70;;
57023;SDS011;42916;54.346;18.562;2023-11-21T01:30:18;12.30;;;5.20;;
57023;SDS011;42916;54.346;18.562;2023-11-21T01:32:45;8.60;;;4.80;;
57023;SDS011;42916;54.346;18.562;2023-11-21T01:35:11;9.30;;;4.80;;
57023;SDS011;42916;54.346;18.562;2023-11-21T01:37:38;8.80;;;5.20;;
57023;SDS011;42916;54.346;18.562;2023-11-21T01:40:05;12.40;;;5.20;;
57023;SDS011;42916;54.346;18.562;2023-11-21T01:42:36;9.00;;;4.80;;
57023;SDS011;42916;54.346;18.562;2023-11-21T01:45:03;10.70;;;5.20;;
57023;SDS011;42916;54.346;18.562;2023-11-21T01:47:32;10.90;;;5.50;;
57023;SDS011;42916;54.346;18.562;2023-11-21T01:50:00;11.50;;;5.00;;
57023;SDS011;42916;54.346;18.562;2023-11-21T01:52:28;9.00;;;4.50;;
57023;SDS011;42916;54.346;18.562;2023-11-21T01:54:56;9.20;;;4.80;;
57023;SDS011;42916;54.346;18.562;2023-11-21T01:57:25;8.40;;;4.80;;
57023;SDS011;42916;54.346;18.562;2023-11-21T01:59:52;10.20;;;4.80;;
57023;SDS011;42916;54.346;18.562;2023-11-21T02:02:20;12.70;;;5.50;;
57023;SDS011;42916;54.346;18.562;2023-11-21T02:04:47;10.50;;;4.60;;
57023;SDS011;42916;54.346;18.562;2023-11-21T02:07:14;9.20;;;4.50;;
57023;SDS011;42916;54.346;18.562;2023-11-21T02:09:41;9.50;;;4.70;;
57023;SDS011;42916;54.346;18.562;2023-11-21T02:12:09;10.40;;;5.00;;
57023;SDS011;42916;54.346;18.562;2023-11-21T02:14:36;9.20;;;4.10;;
57023;SDS011;42916;54.346;18.562;2023-11-21T02:17:03;10.30;;;4.30;;
57023;SDS011;42916;54.346;18.562;2023-11-21T02:19:31;9.40;;;4.80;;
57023;SDS011;42916;54.346;18.562;2023-11-21T02:21:59;9.60;;;4.90;;
57023;SDS011;42916;54.346;18.562;2023-11-21T02:24:32;6.60;;;4.10;;
57023;SDS011;42916;54.346;18.562;2023-11-21T02:26:59;6.70;;;4.00;;
57023;SDS011;42916;54.346;18.562;2023-11-21T02:29:26;7.70;;;4.40;;
57023;SDS011;42916;54.346;18.562;2023-11-21T02:31:54;7.50;;;4.20;;
57023;SDS011;42916;54.346;18.562;2023-11-21T02:34:22;9.00;;;4.30;;
57023;SDS011;42916;54.346;18.562;2023-11-21T02:39:17;9.40;;;4.80;;
57023;SDS011;42916;54.346;18.562;2023-11-21T02:41:44;7.40;;;4.30;;
57023;SDS011;42916;54.346;18.562;2023-11-21T02:44:11;7.70;;;4.20;;
57023;SDS011;42916;54.346;18.562;2023-11-21T02:46:38;8.80;;;4.30;;
57023;SDS011;42916;54.346;18.562;2023-11-21T02:49:06;7.80;;;4.70;;
57023;SDS011;42916;54.346;18.562;2023-11-21T02:51:33;6.30;;;3.90;;
57023;SDS011;42916;54.346;18.562;2023-11-21T02:54:00;8.20;;;4.10;;
57023;SDS011;42916;54.346;18.562;2023-11-21T02:56:29;7.10;;;4.10;;
57023;SDS011;42916;54.346;18.562;2023-11-21T02:58:56;8.40;;;3.90;;
57023;SDS011;42916;54.346;18.562;2023-11-21T03:01:23;8.00;;;3.80;;
57023;SDS011;42916;54.346;18.562;2023-11-21T03:03:53;8.00;;;4.30;;
57023;SDS011;42916;54.346;18.562;2023-11-21T03:06:21;9.20;;;4.80;;
57023;SDS011;42916;54.346;18.562;2023-11-21T03:08:49;7.90;;;4.40;;
57023;SDS011;42916;54.346;18.562;2023-11-21T03:11:16;9.40;;;4.40;;
57023;SDS011;42916;54.346;18.562;2023-11-21T03:13:43;8.40;;;4.70;;
57023;SDS011;42916;54.346;18.562;2023-11-21T03:16:09;6.90;;;3.50;;
57023;SDS011;42916;54.346;18.562;2023-11-21T03:18:37;9.00;;;4.50;;
57023;SDS011;42916;54.346;18.562;2023-11-21T03:21:05;8.90;;;4.40;;
57023;SDS011;42916;54.346;18.562;2023-11-21T03:23:35;8.80;;;4.60;;
57023;SDS011;42916;54.346;18.562;2023-11-21T03:26:03;9.20;;;4.20;;
57023;SDS011;42916;54.346;18.562;2023-11-21T03:28:30;8.10;;;4.10;;
57023;SDS011;42916;54.346;18.562;2023-11-21T03:30:57;8.70;;;3.90;;
57023;SDS011;42916;54.346;18.562;2023-11-21T03:33:24;11.10;;;4.30;;
57023;SDS011;42916;54.346;18.562;2023-11-21T03:35:51;9.30;;;4.30;;
57023;SDS011;42916;54.346;18.562;2023-11-21T03:38:19;8.40;;;4.80;;
57023;SDS011;42916;54.346;18.562;2023-11-21T03:40:46;9.10;;;4.00;;
57023;SDS011;42916;54.346;18.562;2023-11-21T03:43:13;8.50;;;4.30;;
57023;SDS011;42916;54.346;18.562;2023-11-21T03:45:40;10.40;;;4.60;;
57023;SDS011;42916;54.346;18.562;2023-11-21T03:48:07;9.00;;;4.30;;
57023;SDS011;42916;54.346;18.562;2023-11-21T03:50:37;8.30;;;3.90;;
57023;SDS011;42916;54.346;18.562;2023-11-21T03:53:05;8.70;;;4.40;;
57023;SDS011;42916;54.346;18.562;2023-11-21T03:55:32;8.00;;;4.40;;
57023;SDS011;42916;54.346;18.562;2023-11-21T03:57:59;9.50;;;4.70;;
57023;SDS011;42916;54.346;18.562;2023-11-21T04:00:25;8.30;;;4.60;;
57023;SDS011;42916;54.346;18.562;2023-11-21T04:02:55;9.00;;;4.30;;
57023;SDS011;42916;54.346;18.562;2023-11-21T04:05:21;9.50;;;4.40;;
57023;SDS011;42916;54.346;18.562;2023-11-21T04:07:49;8.10;;;4.40;;
57023;SDS011;42916;54.346;18.562;2023-11-21T04:10:17;11.10;;;5.00;;
57023;SDS011;42916;54.346;18.562;2023-11-21T04:12:44;8.00;;;3.90;;
57023;SDS011;42916;54.346;18.562;2023-11-21T04:15:11;8.10;;;4.30;;
57023;SDS011;42916;54.346;18.562;2023-11-21T04:17:41;9.00;;;4.10;;
57023;SDS011;42916;54.346;18.562;2023-11-21T04:20:08;9.90;;;4.60;;
57023;SDS011;42916;54.346;18.562;2023-11-21T04:22:36;7.10;;;4.60;;
57023;SDS011;42916;54.346;18.562;2023-11-21T04:25:10;8.30;;;4.60;;
57023;SDS011;42916;54.346;18.562;2023-11-21T04:27:40;8.00;;;4.50;;
57023;SDS011;42916;54.346;18.562;2023-11-21T04:30:10;9.00;;;4.90;;
57023;SDS011;42916;54.346;18.562;2023-11-21T04:32:37;9.30;;;5.00;;
57023;SDS011;42916;54.346;18.562;2023-11-21T04:35:05;9.90;;;4.80;;
57023;SDS011;42916;54.346;18.562;2023-11-21T04:37:32;13.70;;;4.90;;
57023;SDS011;42916;54.346;18.562;2023-11-21T04:39:59;11.50;;;4.70;;
57023;SDS011;42916;54.346;18.562;2023-11-21T04:42:26;10.00;;;4.40;;
57023;SDS011;42916;54.346;18.562;2023-11-21T04:44:52;8.30;;;4.60;;
57023;SDS011;42916;54.346;18.562;2023-11-21T04:47:19;7.50;;;4.60;;
57023;SDS011;42916;54.346;18.562;2023-11-21T04:49:46;8.70;;;4.70;;
57023;SDS011;42916;54.346;18.562;2023-11-21T14:58:00;8.00;;;2.90;;
57023;SDS011;42916;54.346;18.562;2023-11-21T15:00:30;9.20;;;3.40;;
57023;SDS011;42916;54.346;18.562;2023-11-21T15:03:00;5.90;;;3.20;;
57023;SDS011;42916;54.346;18.562;2023-11-21T15:05:28;9.00;;;4.30;;
57023;SDS011;42916;54.346;18.562;2023-11-21T15:07:56;5.70;;;3.20;;
57023;SDS011;42916;54.346;18.562;2023-11-21T15:10:34;6.20;;;3.10;;
57023;SDS011;42916;54.346;18.562;2023-11-21T15:13:24;7.00;;;2.90;;
57023;SDS011;42916;54.346;18.562;2023-11-21T15:15:53;5.90;;;3.10;;
57023;SDS011;42916;54.346;18.562;2023-11-21T15:18:20;5.30;;;3.20;;
57023;SDS011;42916;54.346;18.562;2023-11-21T15:20:47;6.10;;;3.30;;
57023;SDS011;42916;54.346;18.562;2023-11-21T15:23:14;7.00;;;3.90;;
57023;SDS011;42916;54.346;18.562;2023-11-21T15:25:43;9.00;;;3.60;;
57023;SDS011;42916;54.346;18.562;2023-11-21T15:28:11;5.40;;;3.60;;
57023;SDS011;42916;54.346;18.562;2023-11-21T15:30:38;7.30;;;3.90;;
57023;SDS011;42916;54.346;18.562;2023-11-21T15:33:04;7.00;;;3.90;;
57023;SDS011;42916;54.346;18.562;2023-11-21T15:35:32;6.60;;;4.30;;
57023;SDS011;42916;54.346;18.562;2023-11-21T15:37:59;8.10;;;3.70;;
57023;SDS011;42916;54.346;18.562;2023-11-21T15:40:26;6.90;;;3.40;;
57023;SDS011;42916;54.346;18.562;2023-11-21T15:42:53;6.70;;;3.90;;
57023;SDS011;42916;54.346;18.562;2023-11-21T15:45:20;6.80;;;3.70;;
57023;SDS011;42916;54.346;18.562;2023-11-21T15:47:49;4.80;;;3.20;;
57023;SDS011;42916;54.346;18.562;2023-11-21T15:50:16;7.00;;;4.20;;
57023;SDS011;42916;54.346;18.562;2023-11-21T15:52:43;11.00;;;4.50;;
57023;SDS011;42916;54.346;18.562;2023-11-21T15:55:10;11.20;;;5.60;;
57023;SDS011;42916;54.346;18.562;2023-11-21T15:57:37;10.10;;;5.10;;
57023;SDS011;42916;54.346;18.562;2023-11-21T16:00:04;10.90;;;5.70;;
57023;SDS011;42916;54.346;18.562;2023-11-21T16:02:37;11.30;;;5.60;;
57023;SDS011;42916;54.346;18.562;2023-11-21T16:05:04;10.70;;;5.80;;
57023;SDS011;42916;54.346;18.562;2023-11-21T16:07:31;9.60;;;5.30;;
57023;SDS011;42916;54.346;18.562;2023-11-21T16:09:58;10.00;;;5.20;;
57023;SDS011;42916;54.346;18.562;2023-11-21T16:12:25;9.60;;;5.60;;
57023;SDS011;42916;54.346;18.562;2023-11-21T16:14:52;12.40;;;5.80;;
57023;SDS011;42916;54.346;18.562;2023-11-21T16:17:18;12.40;;;5.90;;
57023;SDS011;42916;54.346;18.562;2023-11-21T16:19:47;10.40;;;5.60;;
57023;SDS011;42916;54.346;18.562;2023-11-21T16:22:14;12.80;;;5.90;;
57023;SDS011;42916;54.346;18.562;2023-11-21T16:24:41;10.80;;;5.80;;
57023;SDS011;42916;54.346;18.562;2023-11-21T16:27:08;15.70;;;6.20;;
57023;SDS011;42916;54.346;18.562;2023-11-21T16:29:36;12.40;;;6.60;;
57023;SDS011;42916;54.346;18.562;2023-11-21T16:32:02;12.40;;;6.30;;
57023;SDS011;42916;54.346;18.562;2023-11-21T16:34:29;14.20;;;6.30;;
57023;SDS011;42916;54.346;18.562;2023-11-21T16:36:56;17.40;;;7.40;;
57023;SDS011;42916;54.346;18.562;2023-11-21T16:39:23;14.50;;;7.10;;
57023;SDS011;42916;54.346;18.562;2023-11-21T16:41:50;15.70;;;6.90;;
57023;SDS011;42916;54.346;18.562;2023-11-21T16:44:18;17.50;;;7.20;;
57023;SDS011;42916;54.346;18.562;2023-11-21T16:46:49;12.40;;;6.40;;
57023;SDS011;42916;54.346;18.562;2023-11-21T16:49:19;15.50;;;6.70;;
57023;SDS011;42916;54.346;18.562;2023-11-21T16:51:46;14.00;;;7.00;;
57023;SDS011;42916;54.346;18.562;2023-11-21T16:54:13;13.60;;;6.70;;
57023;SDS011;42916;54.346;18.562;2023-11-21T16:56:45;17.30;;;7.00;;
57023;SDS011;42916;54.346;18.562;2023-11-21T16:59:13;14.80;;;7.00;;
57023;SDS011;42916;54.346;18.562;2023-11-21T17:01:40;15.60;;;7.60;;
57023;SDS011;42916;54.346;18.562;2023-11-21T17:04:07;15.10;;;7.10;;
57023;SDS011;42916;54.346;18.562;2023-11-21T17:06:41;16.70;;;7.60;;
57023;SDS011;42916;54.346;18.562;2023-11-21T17:09:09;17.10;;;8.00;;
57023;SDS011;42916;54.346;18.562;2023-11-21T17:11:48;16.30;;;7.40;;
57023;SDS011;42916;54.346;18.562;2023-11-21T17:14:15;16.30;;;8.20;;
57023;SDS011;42916;54.346;18.562;2023-11-21T17:16:43;17.50;;;8.30;;
57023;SDS011;42916;54.346;18.562;2023-11-21T17:19:10;19.30;;;8.60;;
57023;SDS011;42916;54.346;18.562;2023-11-21T17:21:37;14.60;;;7.30;;
57023;SDS011;42916;54.346;18.562;2023-11-21T17:24:04;13.00;;;6.90;;
57023;SDS011;42916;54.346;18.562;2023-11-21T17:26:31;14.90;;;7.40;;
57023;SDS011;42916;54.346;18.562;2023-11-21T17:28:58;13.50;;;7.20;;
57023;SDS011;42916;54.346;18.562;2023-11-21T17:31:25;12.60;;;5.80;;
57023;SDS011;42916;54.346;18.562;2023-11-21T17:33:52;10.90;;;5.60;;
57023;SDS011;42916;54.346;18.562;2023-11-21T17:36:20;13.40;;;6.10;;
57023;SDS011;42916;54.346;18.562;2023-11-21T17:38:48;15.50;;;8.00;;
57023;SDS011;42916;54.346;18.562;2023-11-21T17:41:18;13.10;;;6.30;;
57023;SDS011;42916;54.346;18.562;2023-11-21T17:43:47;17.90;;;7.70;;
57023;SDS011;42916;54.346;18.562;2023-11-21T17:46:20;17.30;;;7.70;;
57023;SDS011;42916;54.346;18.562;2023-11-21T17:48:48;21.00;;;9.60;;
57023;SDS011;42916;54.346;18.562;2023-11-21T17:53:44;20.90;;;9.50;;
57023;SDS011;42916;54.346;18.562;2023-11-21T17:56:14;24.10;;;11.10;;
57023;SDS011;42916;54.346;18.562;2023-11-21T17:58:42;22.00;;;10.00;;
57023;SDS011;42916;54.346;18.562;2023-11-21T18:01:09;22.60;;;10.50;;
57023;SDS011;42916;54.346;18.562;2023-11-21T18:03:36;21.60;;;9.90;;
57023;SDS011;42916;54.346;18.562;2023-11-21T18:06:06;22.40;;;10.00;;
57023;SDS011;42916;54.346;18.562;2023-11-21T18:08:33;22.90;;;9.90;;
57023;SDS011;42916;54.346;18.562;2023-11-21T18:11:01;20.90;;;9.40;;
57023;SDS011;42916;54.346;18.562;2023-11-21T18:13:31;18.60;;;9.40;;
57023;SDS011;42916;54.346;18.562;2023-11-21T18:15:57;19.30;;;9.10;;
57023;SDS011;42916;54.346;18.562;2023-11-21T18:18:24;24.00;;;9.90;;
57023;SDS011;42916;54.346;18.562;2023-11-21T18:20:52;19.60;;;9.10;;
57023;SDS011;42916;54.346;18.562;2023-11-21T18:23:19;19.30;;;9.10;;
57023;SDS011;42916;54.346;18.562;2023-11-21T18:25:45;13.50;;;6.90;;
57023;SDS011;42916;54.346;18.562;2023-11-21T18:28:12;9.90;;;5.40;;
57023;SDS011;42916;54.346;18.562;2023-11-21T18:30:40;13.90;;;6.50;;
57023;SDS011;42916;54.346;18.562;2023-11-21T18:33:07;13.20;;;6.40;;
57023;SDS011;42916;54.346;18.562;2023-11-21T18:35:36;29.60;;;15.40;;
57023;SDS011;42916;54.346;18.562;2023-11-21T18:38:03;69.70;;;40.90;;
57023;SDS011;42916;54.346;18.562;2023-11-21T18:40:30;27.90;;;15.30;;
57023;SDS011;42916;54.346;18.562;2023-11-21T18:42:57;57.60;;;34.20;;
57023;SDS011;42916;54.346;18.562;2023-11-21T18:45:24;28.60;;;17.90;;
57023;SDS011;42916;54.346;18.562;2023-11-21T18:47:50;48.60;;;30.40;;
57023;SDS011;42916;54.346;18.562;2023-11-21T18:50:17;17.10;;;10.20;;
57023;SDS011;42916;54.346;18.562;2023-11-21T18:52:47;40.70;;;25.90;;
57023;SDS011;42916;54.346;18.562;2023-11-21T18:55:15;20.90;;;11.60;;
57023;SDS011;42916;54.346;18.562;2023-11-21T18:57:42;9.00;;;4.90;;
57023;SDS011;42916;54.346;18.562;2023-11-21T19:00:09;8.60;;;5.00;;
57023;SDS011;42916;54.346;18.562;2023-11-21T19:02:38;9.70;;;4.90;;
57023;SDS011;42916;54.346;18.562;2023-11-21T19:05:06;8.70;;;4.50;;
57023;SDS011;42916;54.346;18.562;2023-11-21T19:07:34;9.10;;;4.70;;
57023;SDS011;42916;54.346;18.562;2023-11-21T19:10:03;7.60;;;4.00;;
57023;SDS011;42916;54.346;18.562;2023-11-21T19:12:36;7.30;;;3.80;;
57023;SDS011;42916;54.346;18.562;2023-11-21T19:15:08;7.30;;;4.10;;
57023;SDS011;42916;54.346;18.562;2023-11-21T19:17:35;7.20;;;4.30;;
57023;SDS011;42916;54.346;18.562;2023-11-21T19:20:02;6.60;;;3.70;;
57023;SDS011;42916;54.346;18.562;2023-11-21T19:22:30;7.40;;;4.20;;
57023;SDS011;42916;54.346;18.562;2023-11-21T19:24:56;9.90;;;4.10;;
57023;SDS011;42916;54.346;18.562;2023-11-21T19:27:23;9.70;;;4.40;;
57023;SDS011;42916;54.346;18.562;2023-11-21T19:29:50;8.70;;;4.40;;
57023;SDS011;42916;54.346;18.562;2023-11-21T19:32:16;10.90;;;4.50;;
57023;SDS011;42916;54.346;18.562;2023-11-21T19:34:43;7.30;;;4.10;;
57023;SDS011;42916;54.346;18.562;2023-11-21T19:37:10;7.80;;;4.50;;
57023;SDS011;42916;54.346;18.562;2023-11-21T19:39:37;9.90;;;4.70;;
57023;SDS011;42916;54.346;18.562;2023-11-21T19:42:04;9.40;;;4.40;;
57023;SDS011;42916;54.346;18.562;2023-11-21T19:44:31;7.60;;;4.20;;
57023;SDS011;42916;54.346;18.562;2023-11-21T19:46:58;8.80;;;4.90;;
57023;SDS011;42916;54.346;18.562;2023-11-21T19:49:25;7.60;;;4.40;;
57023;SDS011;42916;54.346;18.562;2023-11-21T19:51:52;8.00;;;4.30;;
57023;SDS011;42916;54.346;18.562;2023-11-21T19:54:18;10.10;;;4.60;;
57023;SDS011;42916;54.346;18.562;2023-11-21T19:56:45;10.10;;;5.50;;
57023;SDS011;42916;54.346;18.562;2023-11-21T19:59:12;11.00;;;5.50;;
57023;SDS011;42916;54.346;18.562;2023-11-21T20:01:39;9.60;;;5.20;;
57023;SDS011;42916;54.346;18.562;2023-11-21T20:04:06;11.60;;;5.40;;
57023;SDS011;42916;54.346;18.562;2023-11-21T20:06:39;11.20;;;6.00;;
57023;SDS011;42916;54.346;18.562;2023-11-21T20:09:06;8.10;;;5.30;;
57023;SDS011;42916;54.346;18.562;2023-11-21T20:11:34;10.70;;;5.00;;
57023;SDS011;42916;54.346;18.562;2023-11-21T20:14:01;9.70;;;4.70;;
57023;SDS011;42916;54.346;18.562;2023-11-21T20:16:27;9.50;;;5.00;;
57023;SDS011;42916;54.346;18.562;2023-11-21T20:18:54;10.10;;;5.00;;
57023;SDS011;42916;54.346;18.562;2023-11-21T20:21:21;10.10;;;5.10;;
57023;SDS011;42916;54.346;18.562;2023-11-21T20:23:48;13.20;;;5.50;;
57023;SDS011;42916;54.346;18.562;2023-11-21T20:26:22;12.20;;;5.70;;
57023;SDS011;42916;54.346;18.562;2023-11-21T20:28:50;8.70;;;5.00;;
57023;SDS011;42916;54.346;18.562;2023-11-21T20:31:18;14.20;;;5.40;;
57023;SDS011;42916;54.346;18.562;2023-11-21T20:33:46;15.20;;;6.00;;
57023;SDS011;42916;54.346;18.562;2023-11-21T20:36:14;12.10;;;5.90;;
57023;SDS011;42916;54.346;18.562;2023-11-21T20:38:41;15.90;;;5.80;;
57023;SDS011;42916;54.346;18.562;2023-11-21T20:41:08;12.60;;;5.40;;
57023;SDS011;42916;54.346;18.562;2023-11-21T20:43:39;13.30;;;6.20;;
57023;SDS011;42916;54.346;18.562;2023-11-21T20:46:06;12.00;;;6.70;;
57023;SDS011;42916;54.346;18.562;2023-11-21T20:48:33;11.60;;;6.40;;
57023;SDS011;42916;54.346;18.562;2023-11-21T20:50:59;15.20;;;6.00;;
57023;SDS011;42916;54.346;18.562;2023-11-21T20:53:27;14.90;;;6.10;;
57023;SDS011;42916;54.346;18.562;2023-11-21T20:55:53;13.50;;;6.10;;
57023;SDS011;42916;54.346;18.562;2023-11-21T20:58:22;18.00;;;5.80;;
57023;SDS011;42916;54.346;18.562;2023-11-21T21:00:48;12.70;;;6.00;;
57023;SDS011;42916;54.346;18.562;2023-11-21T21:03:15;11.40;;;5.20;;
57023;SDS011;42916;54.346;18.562;2023-11-21T21:05:42;14.00;;;6.00;;
57023;SDS011;42916;54.346;18.562;2023-11-21T21:08:09;15.70;;;6.50;;
57023;SDS011;42916;54.346;18.562;2023-11-21T21:10:38;14.30;;;7.00;;
57023;SDS011;42916;54.346;18.562;2023-11-21T21:13:07;16.40;;;7.10;;
57023;SDS011;42916;54.346;18.562;2023-11-21T21:15:37;17.80;;;7.70;;
57023;SDS011;42916;54.346;18.562;2023-11-21T21:18:05;18.10;;;7.20;;
57023;SDS011;42916;54.346;18.562;2023-11-21T21:20:32;18.20;;;8.40;;
57023;SDS011;42916;54.346;18.562;2023-11-21T21:22:59;24.00;;;9.20;;
57023;SDS011;42916;54.346;18.562;2023-11-21T21:25:26;17.10;;;8.50;;
57023;SDS011;42916;54.346;18.562;2023-11-21T21:27:53;24.10;;;9.60;;
57023;SDS011;42916;54.346;18.562;2023-11-21T21:30:20;20.80;;;9.30;;
57023;SDS011;42916;54.346;18.562;2023-11-21T21:32:47;24.80;;;9.70;;
57023;SDS011;42916;54.346;18.562;2023-11-21T21:35:14;22.30;;;10.40;;
57023;SDS011;42916;54.346;18.562;2023-11-21T21:37:40;36.40;;;13.80;;
57023;SDS011;42916;54.346;18.562;2023-11-21T21:40:07;37.70;;;13.80;;
57023;SDS011;42916;54.346;18.562;2023-11-21T21:42:34;36.20;;;13.50;;
57023;SDS011;42916;54.346;18.562;2023-11-21T21:45:02;36.80;;;14.80;;
57023;SDS011;42916;54.346;18.562;2023-11-21T21:47:30;39.70;;;15.20;;
57023;SDS011;42916;54.346;18.562;2023-11-21T21:49:57;33.30;;;13.10;;
57023;SDS011;42916;54.346;18.562;2023-11-21T21:52:36;25.70;;;11.10;;
57023;SDS011;42916;54.346;18.562;2023-11-21T21:55:05;28.00;;;12.20;;
57023;SDS011;42916;54.346;18.562;2023-11-21T21:57:33;23.10;;;11.10;;
57023;SDS011;42916;54.346;18.562;2023-11-21T21:59:59;26.60;;;11.10;;
57023;SDS011;42916;54.346;18.562;2023-11-21T22:02:26;24.70;;;11.20;;
57023;SDS011;42916;54.346;18.562;2023-11-21T22:04:53;35.80;;;13.20;;
57023;SDS011;42916;54.346;18.562;2023-11-21T22:07:21;41.10;;;14.60;;
57023;SDS011;42916;54.346;18.562;2023-11-21T22:09:48;39.90;;;14.40;;
57023;SDS011;42916;54.346;18.562;2023-11-21T22:12:16;33.50;;;13.40;;
57023;SDS011;42916;54.346;18.562;2023-11-21T22:14:43;34.40;;;12.40;;
57023;SDS011;42916;54.346;18.562;2023-11-21T22:17:09;37.00;;;13.70;;
57023;SDS011;42916;54.346;18.562;2023-11-21T22:19:36;34.10;;;13.70;;
57023;SDS011;42916;54.346;18.562;2023-11-21T22:22:03;28.10;;;12.70;;
57023;SDS011;42916;54.346;18.562;2023-11-21T22:24:29;29.00;;;13.70;;
57023;SDS011;42916;54.346;18.562;2023-11-21T22:27:00;36.50;;;16.00;;
57023;SDS011;42916;54.346;18.562;2023-11-21T22:29:27;40.20;;;17.00;;
57023;SDS011;42916;54.346;18.562;2023-11-21T22:31:54;33.90;;;14.90;;
57023;SDS011;42916;54.346;18.562;2023-11-21T22:34:22;39.40;;;16.60;;
57023;SDS011;42916;54.346;18.562;2023-11-21T22:36:51;30.90;;;13.80;;
57023;SDS011;42916;54.346;18.562;2023-11-21T22:39:19;29.60;;;13.40;;
57023;SDS011;42916;54.346;18.562;2023-11-21T22:41:46;31.70;;;13.50;;
57023;SDS011;42916;54.346;18.562;2023-11-21T22:44:13;34.30;;;13.60;;
57023;SDS011;42916;54.346;18.562;2023-11-21T22:46:41;35.90;;;14.50;;
57023;SDS011;42916;54.346;18.562;2023-11-21T22:49:09;31.70;;;14.10;;
57023;SDS011;42916;54.346;18.562;2023-11-21T22:51:37;36.50;;;15.10;;
57023;SDS011;42916;54.346;18.562;2023-11-21T22:54:04;31.60;;;14.00;;
57023;SDS011;42916;54.346;18.562;2023-11-21T22:56:31;29.70;;;13.90;;
57023;SDS011;42916;54.346;18.562;2023-11-21T22:58:58;32.30;;;13.90;;
57023;SDS011;42916;54.346;18.562;2023-11-21T23:01:25;34.00;;;14.80;;
57023;SDS011;42916;54.346;18.562;2023-11-21T23:03:52;42.30;;;16.00;;
57023;SDS011;42916;54.346;18.562;2023-11-21T23:06:20;43.80;;;17.90;;
57023;SDS011;42916;54.346;18.562;2023-11-21T23:08:48;46.20;;;17.70;;
57023;SDS011;42916;54.346;18.562;2023-11-21T23:11:15;50.20;;;18.20;;
57023;SDS011;42916;54.346;18.562;2023-11-21T23:13:42;46.60;;;18.20;;
57023;SDS011;42916;54.346;18.562;2023-11-21T23:16:10;45.10;;;18.70;;
57023;SDS011;42916;54.346;18.562;2023-11-21T23:18:36;44.90;;;19.30;;
57023;SDS011;42916;54.346;18.562;2023-11-21T23:21:04;50.00;;;20.40;;
57023;SDS011;42916;54.346;18.562;2023-11-21T23:23:33;53.30;;;20.70;;
57023;SDS011;42916;54.346;18.562;2023-11-21T23:25:59;50.20;;;21.20;;
57023;SDS011;42916;54.346;18.562;2023-11-21T23:28:27;43.10;;;19.60;;
57023;SDS011;42916;54.346;18.562;2023-11-21T23:30:54;44.60;;;18.50;;
57023;SDS011;42916;54.346;18.562;2023-11-21T23:33:20;42.70;;;17.90;;
57023;SDS011;42916;54.346;18.562;2023-11-21T23:35:47;35.70;;;17.40;;
57023;SDS011;42916;54.346;18.562;2023-11-21T23:38:14;35.50;;;16.80;;
57023;SDS011;42916;54.346;18.562;2023-11-21T23:40:41;32.50;;;16.10;;
57023;SDS011;42916;54.346;18.562;2023-11-21T23:43:07;35.50;;;16.50;;
57023;SDS011;42916;54.346;18.562;2023-11-21T23:45:34;54.00;;;19.50;;
57023;SDS011;42916;54.346;18.562;2023-11-21T23:48:01;46.40;;;18.80;;
57023;SDS011;42916;54.346;18.562;2023-11-21T23:50:28;39.30;;;17.20;;
57023;SDS011;42916;54.346;18.562;2023-11-21T23:52:55;33.40;;;15.90;;
57023;SDS011;42916;54.346;18.562;2023-11-21T23:55:22;34.00;;;16.10;;
57023;SDS011;42916;54.346;18.562;2023-11-21T23:57:49;33.00;;;14.60;;
